หน้าหลัก
METAR-TAF:

METAR-TAF

ท่าอากาศยาน :

หมู่เกาะซิลลีย์, อังกฤษ

ละติจูด: 49-55N, ลองจิจูด: 006-18W, ความสูง: 31 ม.

การสังเกตสภาพอากาศปัจจุบัน

รายงานได้ทำขึ้นเมื่อ 10 ชั่วโมงและ 22 นาทีที่แล้ว ณ เวลา 16:50 UTC
ลม 9 นอตจากตะวันตก/ตะวันตกเฉียงใต้
อุณหภูมิ 16°C
ความชื้น 63%
ความกดอากาศ 1022 hPa
ทัศนวิสัย 10 กม. หรือมากกว่า
มีเมฆน้อยที่ความสูง 3100 ฟุต

METAR: EGHE 121650Z 25009KT 9999 FEW031 16/09 Q1022

เวลา: 04:12 (03:12 UTC)

การพยากรณ์

รายงานได้ทำขึ้นเมื่อ 13 ชั่วโมงและ 15 นาทีที่แล้ว ณ เวลา 13:57 UTC
การพยากรณ์มีผลตั้งแต่วันที่ 12 ณ เวลา 15 UTC จนถึงวันที่ 12 ณ เวลา 18 UTC
ลม 9 นอตจากตะวันตก/ตะวันตกเฉียงเหนือ
ทัศนวิสัย 10 กม. หรือมากกว่า
มีเมฆน้อยที่ความสูง 4500 ฟุต

TAF: EGHE 121357Z 1215/1218 29009KT 9999 FEW045

สังเกตการณ์สภาพอากาศและพยากรณ์อากาศของสนามบินมากกว่า 4000 แห่ง (รายงาน METAR และ TAF).

สถานีที่ดูได้จะแสดงไว้ด้วยจุดสีเหลืองและสีแดงบนแผนที่.

เลื่อนเมาส์ไปเหนือจุดเพื่อดูชื่อสถานี.

แล้วคลิกเพื่อดูสังเกตการณ์และการพยากรณ์สภาพอากาศ.

ในการเปลี่ยนแผนที่: คลิกที่ปุ่มสีเขียวที่มีกากบาทสีดำเพื่อซูมเข้า; ที่ปุ่มสีเขียวที่มีขีดเพื่อซูมออก; หรือที่ลูกศรสีเขียวเพื่อไปยังแผนที่ที่อยู่ติดกัน.


METAR-TAF: